Time;durP1;ratioP1;P1;durP2;ratioP2;P2;SDS_P1;SDS_P2;PMS_P1;PMS_P2;Temp;Humidity;BMP_temperature;BMP_pressure;BME280_temperature;BME280_humidity;BME280_pressure;Samples;Min_cycle;Max_cycle;Signal;HPM_P1;HPM_P2
2022/07/08 00:01:47;;;;;;;1.80;0.60;;;16.70;1.00;;;;;;6046574;23;20019;-89
2022/07/08 00:04:18;;;;;;;5.20;0.60;;;16.70;1.00;;;;;;6045576;23;20045;-89
2022/07/08 00:06:56;;;;;;;4.20;0.90;;;16.70;1.00;;;;;;6046190;23;20022;-88
2022/07/08 00:09:26;;;;;;;1.92;1.08;;;16.60;1.00;;;;;;6070449;23;20082;-90
2022/07/08 00:11:54;;;;;;;3.22;0.60;;;16.70;1.00;;;;;;6066003;23;20043;-88
2022/07/08 00:14:23;;;;;;;6.63;1.15;;;16.60;1.00;;;;;;6052839;23;20082;-90
2022/07/08 00:16:55;;;;;;;3.60;0.65;;;16.60;1.00;;;;;;6089428;23;20019;-90
2022/07/08 00:19:22;;;;;;;2.90;0.85;;;16.60;1.00;;;;;;6022447;23;20417;-90
2022/07/08 00:21:50;;;;;;;3.72;0.85;;;16.60;1.00;;;;;;6068278;23;20022;-89
2022/07/08 00:24:20;;;;;;;7.35;0.77;;;16.50;1.00;;;;;;6069801;23;20070;-89
2022/07/08 00:26:47;;;;;;;4.30;1.42;;;16.50;1.00;;;;;;6045922;23;20019;-88
2022/07/08 00:29:16;;;;;;;3.65;1.13;;;16.50;1.00;;;;;;6044917;23;20054;-89
2022/07/08 00:31:46;;;;;;;3.03;0.65;;;16.60;1.00;;;;;;6046012;23;20343;-88
2022/07/08 00:34:13;;;;;;;3.05;0.65;;;16.60;1.00;;;;;;6070210;23;20023;-89
2022/07/08 00:36:41;;;;;;;6.25;0.90;;;16.50;1.00;;;;;;6044861;23;20067;-89
2022/07/08 00:39:14;;;;;;;2.47;0.90;;;16.50;1.00;;;;;;6021150;23;20018;-88
2022/07/08 00:41:46;;;;;;;1.83;0.57;;;16.50;1.00;;;;;;6044457;23;20022;-89
2022/07/08 00:44:19;;;;;;;2.97;0.68;;;16.40;1.00;;;;;;6068457;23;20022;-89
2022/07/08 00:47:14;;;;;;;;;;;;;;;;;;;;;
2022/07/08 00:49:58;;;;;;;2.70;1.00;;;16.40;1.00;;;;;;6070733;23;20019;-90
2022/07/08 00:52:51;;;;;;;2.47;0.80;;;16.40;1.00;;;;;;6049936;23;20074;-89
2022/07/08 00:55:22;;;;;;;3.78;0.68;;;16.40;1.00;;;;;;6068230;23;20048;-88
2022/07/08 00:58:05;;;;;;;4.63;0.57;;;16.30;1.00;;;;;;6044398;23;20027;-89
2022/07/08 01:00:48;;;;;;;5.45;0.90;;;16.30;1.00;;;;;;6043995;23;20027;-88
2022/07/08 01:03:27;;;;;;;2.95;0.98;;;16.30;1.00;;;;;;6045103;23;20022;-89
2022/07/08 01:06:00;;;;;;;1.63;0.40;;;16.30;1.00;;;;;;6068504;23;20389;-88
2022/07/08 01:08:28;;;;;;;6.47;0.90;;;16.30;1.00;;;;;;6068522;23;20019;-89
2022/07/08 01:11:00;;;;;;;1.90;0.73;;;16.30;1.00;;;;;;6045160;23;20070;-88
2022/07/08 01:13:34;;;;;;;8.98;1.55;;;16.30;1.00;;;;;;6044492;23;20026;-88
2022/07/08 01:16:14;;;;;;;2.03;0.40;;;16.30;1.00;;;;;;6046042;23;20034;-88
2022/07/08 01:18:45;;;;;;;2.30;0.50;;;16.30;1.00;;;;;;6045732;23;20022;-89
2022/07/08 01:22:04;;;;;;;4.47;1.10;;;16.30;1.00;;;;;;6069821;23;20435;-89
2022/07/08 01:24:39;;;;;;;5.10;1.30;;;16.20;1.00;;;;;;6070173;23;20019;-90
2022/07/08 01:27:12;;;;;;;3.92;1.05;;;16.20;1.00;;;;;;6045901;23;20023;-88
2022/07/08 01:29:42;;;;;;;3.00;0.60;;;16.20;1.00;;;;;;6023376;23;20026;-88
2022/07/08 01:32:29;;;;;;;2.25;0.70;;;16.20;1.00;;;;;;6053156;23;20045;-88
2022/07/08 01:35:00;;;;;;;3.25;1.02;;;16.20;1.00;;;;;;6070289;23;20023;-88
2022/07/08 01:37:31;;;;;;;5.38;0.70;;;16.20;1.00;;;;;;6070858;23;20113;-89
2022/07/08 01:39:59;;;;;;;2.22;1.42;;;16.10;1.00;;;;;;6095160;23;20011;-89
2022/07/08 01:42:30;;;;;;;3.65;0.95;;;16.10;1.00;;;;;;6071016;23;20025;-88
2022/07/08 01:45:02;;;;;;;6.13;1.70;;;16.10;1.00;;;;;;6069920;23;20097;-88
2022/07/08 01:47:30;;;;;;;3.47;0.52;;;16.10;1.00;;;;;;6068889;23;20094;-88
2022/07/08 01:49:57;;;;;;;4.63;0.70;;;16.00;1.00;;;;;;6044687;23;20347;-88
2022/07/08 01:52:30;;;;;;;5.30;0.55;;;16.00;1.00;;;;;;6068446;23;20523;-88
2022/07/08 01:54:59;;;;;;;3.35;0.68;;;16.00;1.00;;;;;;6044028;23;20354;-89
2022/07/08 01:57:31;;;;;;;5.93;1.10;;;16.00;1.00;;;;;;6069682;23;20450;-90
2022/07/08 01:59:59;;;;;;;6.70;1.70;;;16.00;1.00;;;;;;6069770;23;20466;-90
2022/07/08 02:02:36;;;;;;;7.60;1.20;;;16.00;1.00;;;;;;6072162;23;20093;-90
2022/07/08 02:05:08;;;;;;;3.42;0.73;;;16.00;1.00;;;;;;6070740;23;20019;-91
2022/07/08 02:07:37;;;;;;;3.17;1.15;;;16.00;1.00;;;;;;6074979;23;20157;-89
2022/07/08 02:10:09;;;;;;;4.53;0.95;;;16.00;1.00;;;;;;6082484;23;20455;-90
2022/07/08 02:12:41;;;;;;;5.13;0.90;;;16.00;1.00;;;;;;6058085;23;20026;-89
2022/07/08 02:15:09;;;;;;;5.53;0.57;;;15.90;1.00;;;;;;6057618;23;20052;-89
2022/07/08 02:17:42;;;;;;;8.95;0.75;;;15.90;1.00;;;;;;6071794;23;20026;-90
2022/07/08 02:20:12;;;;;;;3.72;0.63;;;15.90;1.00;;;;;;6071112;23;20050;-89
2022/07/08 02:22:43;;;;;;;2.58;0.90;;;15.90;1.00;;;;;;6045674;23;20018;-90
2022/07/08 02:25:11;;;;;;;7.18;0.85;;;15.90;1.00;;;;;;6069621;23;20450;-89
2022/07/08 02:27:39;;;;;;;3.00;0.60;;;15.90;1.00;;;;;;6045716;23;20050;-90
2022/07/08 02:30:07;;;;;;;1.77;0.73;;;15.90;1.00;;;;;;6069372;23;20023;-90
2022/07/08 02:32:36;;;;;;;8.27;0.98;;;15.90;1.00;;;;;;6045635;23;20451;-89
2022/07/08 02:35:06;;;;;;;1.67;0.98;;;15.90;1.00;;;;;;6045874;23;20023;-90
2022/07/08 02:37:34;;;;;;;1.35;0.50;;;15.90;1.00;;;;;;6046606;23;20058;-90
2022/07/08 02:40:10;;;;;;;7.75;1.15;;;15.90;1.00;;;;;;6071401;23;20063;-90
2022/07/08 02:42:39;;;;;;;6.28;1.00;;;15.90;1.00;;;;;;6045655;23;20510;-90
2022/07/08 02:45:14;;;;;;;2.85;0.85;;;15.90;1.00;;;;;;6045211;23;20451;-90
2022/07/08 02:47:49;;;;;;;5.63;0.93;;;15.90;1.00;;;;;;6045368;23;20380;-90
2022/07/08 02:50:18;;;;;;;5.63;0.88;;;15.90;1.00;;;;;;6023298;23;20395;-90
2022/07/08 02:52:50;;;;;;;6.05;1.20;;;15.90;1.00;;;;;;6068730;23;20019;-90
2022/07/08 02:55:17;;;;;;;3.17;1.35;;;15.90;1.00;;;;;;6045643;23;20023;-90
2022/07/08 02:57:58;;;;;;;3.38;0.57;;;15.90;1.00;;;;;;6070228;23;20027;-90
2022/07/08 03:00:42;;;;;;;4.30;0.52;;;15.90;1.00;;;;;;6048334;23;20022;-90
2022/07/08 03:03:31;;;;;;;5.45;1.55;;;15.90;1.00;;;;;;6047772;23;20343;-90
2022/07/08 03:06:40;;;;;;;5.88;1.17;;;15.90;1.00;;;;;;6052588;23;20018;-91
2022/07/08 03:09:13;;;;;;;4.57;0.85;;;15.90;1.00;;;;;;6043851;23;20023;-90
2022/07/08 03:11:49;;;;;;;3.75;1.10;;;15.90;1.00;;;;;;6022089;23;20847;-90
2022/07/08 03:14:37;;;;;;;4.05;0.90;;;15.90;1.00;;;;;;6065612;23;20023;-90
2022/07/08 03:17:12;;;;;;;5.70;1.13;;;15.90;1.00;;;;;;6070468;23;20025;-90
2022/07/08 03:19:57;;;;;;;3.05;1.15;;;15.90;1.00;;;;;;6070860;23;20019;-90
2022/07/08 03:22:58;;;;;;;4.43;0.88;;;15.90;1.00;;;;;;6045320;23;20015;-90
2022/07/08 03:25:56;;;;;;;5.63;0.68;;;15.90;1.00;;;;;;6045140;23;20039;-90
2022/07/08 03:28:38;;;;;;;3.90;1.30;;;15.90;1.00;;;;;;6068527;23;20051;-90
2022/07/08 03:31:25;;;;;;;3.05;0.68;;;15.90;1.00;;;;;;6066414;23;20018;-90
2022/07/08 03:34:03;;;;;;;2.78;0.93;;;15.90;1.00;;;;;;6045148;23;20026;-91
2022/07/08 03:36:52;;;;;;;3.83;1.35;;;15.90;1.00;;;;;;6067716;23;20050;-91
2022/07/08 03:39:50;;;;;;;1.58;0.70;;;15.90;1.00;;;;;;6068267;23;20015;-90
2022/07/08 03:42:42;;;;;;;4.63;0.70;;;15.90;1.00;;;;;;6021310;23;20034;-92
2022/07/08 03:45:29;;;;;;;5.50;0.60;;;15.90;1.00;;;;;;6023087;23;20038;-91
2022/07/08 03:48:03;;;;;;;5.72;0.95;;;15.90;1.00;;;;;;6063323;23;20556;-90
2022/07/08 03:50:44;;;;;;;4.63;1.25;;;16.00;1.00;;;;;;6038112;23;20049;-90
2022/07/08 03:53:17;;;;;;;3.85;0.95;;;16.00;1.00;;;;;;6043507;23;20027;-89
2022/07/08 03:55:50;;;;;;;5.45;1.40;;;16.00;1.00;;;;;;6044769;23;20042;-90
2022/07/08 03:58:19;;;;;;;4.63;0.82;;;16.00;1.00;;;;;;6045245;23;20086;-90
2022/07/08 04:00:55;;;;;;;2.60;0.85;;;15.90;1.00;;;;;;6045895;23;20451;-90
2022/07/08 04:03:37;;;;;;;4.55;1.20;;;15.90;1.00;;;;;;6069331;23;20025;-91
2022/07/08 04:10:46;;;;;;;4.65;0.82;;;15.90;1.00;;;;;;5929994;24;20013;-90
2022/07/08 04:13:29;;;;;;;5.97;1.27;;;16.00;1.00;;;;;;5940655;24;20052;-91
2022/07/08 04:20:28;;;;;;;6.22;1.35;;;16.00;1.00;;;;;;5906821;23;20089;-89
2022/07/08 04:22:55;;;;;;;12.68;1.75;;;16.00;1.00;;;;;;6044054;23;20066;-89
2022/07/08 04:26:31;;;;;;;;;;;;;;;;;;;;;
2022/07/08 04:29:58;;;;;;;3.88;0.55;;;16.00;1.00;;;;;;5902737;24;20032;-90
2022/07/08 04:38:16;;;;;;;1.63;0.60;;;16.10;1.00;;;;;;5926049;24;20126;-90
2022/07/08 04:46:27;;;;;;;2.63;0.60;;;16.10;1.00;;;;;;5852606;24;20077;-90
2022/07/08 04:49:13;;;;;;;3.42;0.85;;;16.10;1.00;;;;;;5947747;23;20023;-90
2022/07/08 04:51:41;;;;;;;3.40;0.73;;;16.10;1.00;;;;;;6010912;23;20083;-89
2022/07/08 04:54:09;;;;;;;4.10;1.13;;;16.20;1.00;;;;;;6015137;23;20455;-89
2022/07/08 04:56:36;;;;;;;4.30;1.08;;;16.10;1.00;;;;;;6016319;23;20051;-89
2022/07/08 04:59:03;;;;;;;4.10;1.10;;;16.20;1.00;;;;;;6040105;23;20027;-88
2022/07/08 05:01:31;;;;;;;6.18;1.20;;;16.20;1.00;;;;;;6041056;23;20026;-89
2022/07/08 05:03:59;;;;;;;2.05;0.70;;;16.20;1.00;;;;;;6016091;23;20025;-89
2022/07/08 05:06:26;;;;;;;9.05;1.05;;;16.20;1.00;;;;;;6015204;23;20080;-89
2022/07/08 05:08:54;;;;;;;2.67;1.10;;;16.20;1.00;;;;;;6016540;23;20439;-89
2022/07/08 05:11:36;;;;;;;4.35;1.30;;;16.20;1.00;;;;;;6018245;23;20031;-89
2022/07/08 05:14:13;;;;;;;4.32;1.13;;;16.20;1.00;;;;;;6017080;23;20034;-89
2022/07/08 05:16:46;;;;;;;9.48;1.42;;;16.20;1.00;;;;;;6041020;23;20019;-89
2022/07/08 05:19:37;;;;;;;7.40;1.27;;;16.30;1.00;;;;;;6015788;23;20110;-89
2022/07/08 05:22:18;;;;;;;3.13;0.57;;;16.30;1.00;;;;;;6039778;23;20023;-90
2022/07/08 05:25:16;;;;;;;8.73;1.10;;;16.30;1.00;;;;;;6015306;23;20456;-89
2022/07/08 05:27:53;;;;;;;5.13;1.02;;;16.30;1.00;;;;;;5993566;23;20102;-89
2022/07/08 05:30:39;;;;;;;1.75;1.00;;;16.30;1.00;;;;;;6041663;23;20462;-90
2022/07/08 05:33:23;;;;;;;6.32;1.20;;;16.30;1.00;;;;;;6015745;23;20034;-90
2022/07/08 05:36:00;;;;;;;6.00;0.85;;;16.40;1.00;;;;;;5994211;23;20053;-90
2022/07/08 05:38:45;;;;;;;3.55;1.35;;;16.40;1.00;;;;;;6039800;23;20042;-89
2022/07/08 05:41:22;;;;;;;2.08;1.25;;;16.40;1.00;;;;;;6039657;23;20054;-89
2022/07/08 05:44:08;;;;;;;4.43;0.98;;;16.40;1.00;;;;;;6018463;23;20019;-89
2022/07/08 05:46:56;;;;;;;10.73;1.35;;;16.50;1.00;;;;;;6016326;23;20122;-89
2022/07/08 05:49:46;;;;;;;;;;;;;;;;;;;;;
2022/07/08 05:52:23;;;;;;;4.95;0.80;;;16.60;1.00;;;;;;6056860;23;20049;-89
2022/07/08 05:55:10;;;;;;;5.57;0.85;;;16.60;1.00;;;;;;6044836;23;20050;-89
2022/07/08 05:57:48;;;;;;;5.45;0.70;;;16.60;1.00;;;;;;6022328;23;20034;-89
2022/07/08 06:00:49;;;;;;;3.15;0.73;;;16.70;1.00;;;;;;6044389;23;20022;-89
2022/07/08 06:03:21;;;;;;;6.60;1.20;;;16.70;1.00;;;;;;6044615;23;20106;-89
2022/07/08 06:05:50;;;;;;;6.22;1.02;;;16.70;1.00;;;;;;6048551;23;20031;-88
2022/07/08 06:08:34;;;;;;;2.35;0.93;;;16.80;1.00;;;;;;6058313;23;20471;-89
2022/07/08 06:11:16;;;;;;;3.13;0.80;;;16.80;1.00;;;;;;6079655;23;20029;-89
2022/07/08 06:13:49;;;;;;;6.07;1.50;;;16.80;1.00;;;;;;6053225;23;20085;-89
2022/07/08 06:16:27;;;;;;;6.90;1.20;;;16.90;1.00;;;;;;6045364;23;20455;-89
2022/07/08 06:19:05;;;;;;;1.70;1.20;;;16.90;1.00;;;;;;6045772;23;20019;-89
2022/07/08 06:21:43;;;;;;;5.28;0.70;;;16.90;1.00;;;;;;6021426;23;20022;-89
2022/07/08 06:24:23;;;;;;;5.75;0.95;;;17.00;1.00;;;;;;6043509;23;20114;-89
2022/07/08 06:27:15;;;;;;;3.70;0.88;;;17.00;1.00;;;;;;6069363;23;20015;-89
2022/07/08 06:29:57;;;;;;;4.70;1.20;;;17.00;1.00;;;;;;6069439;23;20022;-89
2022/07/08 06:35:56;;;;;;;7.18;1.00;;;17.10;1.00;;;;;;6066220;23;20075;-89
2022/07/08 06:38:39;;;;;;;5.55;1.75;;;17.10;1.00;;;;;;6046667;23;20019;-89
2022/07/08 06:41:21;;;;;;;2.30;0.80;;;17.20;1.00;;;;;;6044078;23;20097;-89
2022/07/08 06:43:56;;;;;;;2.90;0.70;;;17.30;1.00;;;;;;6043909;23;20025;-89
2022/07/08 06:46:29;;;;;;;3.80;0.73;;;17.30;1.00;;;;;;6044891;23;20018;-89
2022/07/08 06:49:06;;;;;;;4.15;1.10;;;17.30;1.00;;;;;;6045364;23;20023;-89
2022/07/08 06:51:40;;;;;;;6.28;1.08;;;17.40;1.00;;;;;;6044450;23;20407;-89
2022/07/08 06:56:56;;;;;;;7.55;1.30;;;17.40;1.00;;;;;;6045148;23;20023;-88
2022/07/08 06:59:28;;;;;;;4.13;1.05;;;17.50;1.00;;;;;;6021921;23;20026;-88
2022/07/08 07:02:16;;;;;;;1.75;0.88;;;17.50;1.00;;;;;;6044873;23;20097;-89
2022/07/08 07:04:49;;;;;;;3.47;0.70;;;17.50;1.00;;;;;;6021869;23;20018;-88
2022/07/08 07:07:21;;;;;;;6.20;1.15;;;17.50;1.00;;;;;;6069830;23;20014;-88
2022/07/08 07:09:52;;;;;;;3.95;0.88;;;17.50;1.00;;;;;;6070612;23;20097;-89
2022/07/08 07:12:24;;;;;;;1.85;0.65;;;17.60;1.00;;;;;;6069488;23;20027;-88
2022/07/08 07:14:52;;;;;;;3.95;1.17;;;17.70;1.00;;;;;;6045440;23;20030;-88
2022/07/08 07:17:25;;;;;;;8.00;1.95;;;17.70;1.00;;;;;;6050838;23;20095;-89
2022/07/08 07:19:58;;;;;;;6.45;1.00;;;17.80;1.00;;;;;;6040879;23;20018;-89
2022/07/08 07:22:46;;;;;;;3.05;1.15;;;17.90;1.00;;;;;;6092489;23;20018;-88
2022/07/08 07:25:23;;;;;;;5.35;1.88;;;17.90;1.00;;;;;;6095881;23;20047;-88
2022/07/08 07:28:00;;;;;;;6.20;1.00;;;17.90;1.00;;;;;;6072350;23;20094;-86
2022/07/08 07:30:45;;;;;;;6.43;1.23;;;17.90;1.00;;;;;;6058963;23;20444;-89
2022/07/08 07:33:28;;;;;;;3.35;1.20;;;17.90;1.00;;;;;;6043359;23;20023;-88
2022/07/08 07:36:34;;;;;;;5.68;1.20;;;18.00;1.00;;;;;;6066928;23;20025;-89
2022/07/08 07:39:34;;;;;;;4.93;1.20;;;18.00;1.00;;;;;;6070259;23;20443;-88
2022/07/08 07:42:56;;;;;;;5.80;1.00;;;18.00;1.00;;;;;;6043741;23;20025;-88
2022/07/08 07:45:41;;;;;;;4.20;0.65;;;18.00;1.00;;;;;;6044630;23;20023;-88
2022/07/08 07:48:14;;;;;;;3.58;1.05;;;18.10;1.00;;;;;;6069803;23;20015;-87
2022/07/08 07:50:51;;;;;;;7.10;1.35;;;18.10;1.00;;;;;;6068836;23;20030;-88
2022/07/08 07:53:18;;;;;;;3.55;0.93;;;18.10;1.00;;;;;;6043589;23;20074;-88
2022/07/08 07:55:48;;;;;;;5.35;0.65;;;18.20;1.00;;;;;;6021121;23;20018;-88
2022/07/08 07:58:16;;;;;;;1.77;0.75;;;18.20;1.00;;;;;;6044038;23;20023;-88
2022/07/08 08:00:46;;;;;;;4.05;1.13;;;18.10;1.00;;;;;;6021328;23;20023;-88
2022/07/08 08:03:21;;;;;;;13.70;1.80;;;18.00;1.00;;;;;;6047804;23;20053;-87
2022/07/08 08:05:51;;;;;;;1.83;0.90;;;18.20;1.00;;;;;;6027476;23;20023;-88
2022/07/08 08:08:20;;;;;;;3.33;1.45;;;18.20;1.00;;;;;;6073077;23;20047;-87
2022/07/08 08:10:47;;;;;;;4.97;1.48;;;18.30;1.00;;;;;;6073391;23;20447;-88
2022/07/08 08:13:15;;;;;;;2.10;1.02;;;18.20;1.00;;;;;;6044591;23;20495;-88
2022/07/08 08:16:10;;;;;;;6.07;1.65;;;18.20;1.00;;;;;;6069803;23;20023;-89
2022/07/08 08:18:39;;;;;;;9.43;1.70;;;18.30;1.00;;;;;;6044267;23;20018;-88
2022/07/08 08:21:06;;;;;;;3.92;0.93;;;18.30;1.00;;;;;;6044056;23;20350;-89
2022/07/08 08:23:34;;;;;;;9.50;1.30;;;18.30;1.00;;;;;;6043467;23;20019;-88
2022/07/08 08:26:01;;;;;;;9.32;1.48;;;18.40;1.00;;;;;;6067618;23;20049;-88
2022/07/08 08:28:28;;;;;;;5.45;1.25;;;18.40;1.00;;;;;;6069164;23;20019;-88
2022/07/08 08:30:55;;;;;;;5.40;1.65;;;18.40;1.00;;;;;;6044014;23;20028;-88
2022/07/08 08:33:23;;;;;;;5.15;1.42;;;18.50;1.00;;;;;;6067626;23;20023;-88
2022/07/08 08:35:50;;;;;;;4.78;1.50;;;18.40;1.00;;;;;;6067969;23;20046;-88
2022/07/08 08:38:17;;;;;;;13.52;1.38;;;18.40;1.00;;;;;;6069182;23;20015;-88
2022/07/08 08:40:47;;;;;;;6.88;2.17;;;18.30;1.00;;;;;;6020146;23;20034;-89
2022/07/08 08:43:22;;;;;;;9.02;2.28;;;18.60;1.00;;;;;;6068729;23;20022;-89
2022/07/08 08:45:54;;;;;;;4.68;1.23;;;18.50;1.00;;;;;;6044073;23;20336;-89
2022/07/08 08:48:30;;;;;;;6.68;1.58;;;18.40;1.00;;;;;;6066027;23;20101;-88
2022/07/08 08:50:59;;;;;;;6.13;1.27;;;18.60;1.00;;;;;;6067571;23;20023;-88
2022/07/08 08:53:52;;;;;;;9.45;1.67;;;18.70;1.00;;;;;;6066836;23;20019;-89
2022/07/08 08:56:23;;;;;;;5.68;1.40;;;18.60;1.00;;;;;;6044195;23;20047;-88
2022/07/08 08:58:58;;;;;;;3.30;1.17;;;18.60;1.00;;;;;;6068443;23;20359;-89
2022/07/08 09:01:32;;;;;;;11.52;2.20;;;18.70;1.00;;;;;;6043574;23;20023;-89
2022/07/08 09:04:12;;;;;;;6.05;1.83;;;18.80;1.00;;;;;;6069191;23;20015;-89
2022/07/08 09:07:17;;;;;;;12.35;1.83;;;18.80;1.00;;;;;;6049056;23;20411;-89
2022/07/08 09:14:06;;;;;;;8.10;2.30;;;18.80;1.00;;;;;;6043225;23;20019;-89
2022/07/08 09:17:30;;;;;;;11.65;2.00;;;18.70;1.00;;;;;;6000553;23;20443;-88
2022/07/08 09:20:20;;;;;;;10.50;1.90;;;18.90;1.00;;;;;;6066856;23;20018;-89
2022/07/08 09:23:47;;;;;;;4.53;2.00;;;18.80;1.00;;;;;;6066289;23;20025;-89
2022/07/08 09:34:06;;;;;;;;;;;;;;;;;;;;;
2022/07/08 09:36:50;;;;;;;12.50;1.80;;;19.10;1.00;;;;;;6043563;23;20019;-89
2022/07/08 09:45:13;;;;;;;6.32;1.85;;;19.40;1.00;;;;;;5904166;23;20075;-90
2022/07/08 09:48:10;;;;;;;7.78;1.55;;;19.20;1.00;;;;;;5960907;24;20024;-89
2022/07/08 09:51:39;;;;;;;6.28;1.40;;;19.20;1.00;;;;;;5954645;24;20024;-89
2022/07/08 09:54:28;;;;;;;6.93;2.13;;;19.10;1.00;;;;;;5937281;24;20020;-89
2022/07/08 09:57:44;;;;;;;;;;;;;;;;;;;;;
2022/07/08 10:01:00;;;;;;;8.93;1.83;;;19.30;1.00;;;;;;5964022;24;20024;-89
2022/07/08 10:03:59;;;;;;;5.60;1.52;;;19.50;1.00;;;;;;5962655;23;20233;-89
2022/07/08 10:07:05;;;;;;;11.73;2.78;;;19.50;1.00;;;;;;6156049;23;20016;-90
2022/07/08 10:10:24;;;;;;;7.30;2.15;;;19.70;1.00;;;;;;6164273;23;20041;-89
2022/07/08 10:13:19;;;;;;;7.18;1.40;;;19.70;1.00;;;;;;6130801;23;20001;-89
2022/07/08 10:16:17;;;;;;;5.97;1.65;;;19.80;1.00;;;;;;6128353;23;20388;-89
2022/07/08 10:19:25;;;;;;;;;;;;;;;;;;;;;
2022/07/08 10:22:23;;;;;;;5.68;2.08;;;19.80;1.00;;;;;;6128496;23;20045;-89
2022/07/08 10:26:12;;;;;;;7.75;1.83;;;20.00;1.00;;;;;;6009227;23;20027;-90
2022/07/08 10:29:53;;;;;;;;;;;;;;;;;;;;;
2022/07/08 10:39:09;;;;;;;9.73;3.45;;;20.40;1.00;;;;;;6126538;23;20050;-88
2022/07/08 10:42:38;;;;;;;7.22;1.90;;;20.40;1.00;;;;;;6082043;23;20025;-88
2022/07/08 10:46:37;;;;;;;17.85;3.30;;;20.50;1.00;;;;;;6026906;23;20026;-87
2022/07/08 10:50:29;;;;;;;7.63;1.92;;;20.70;1.00;;;;;;6024617;23;20119;-88
2022/07/08 10:54:17;;;;;;;5.95;1.35;;;20.70;1.00;;;;;;6003444;23;20103;-88
2022/07/08 10:57:40;;;;;;;9.35;1.70;;;20.90;1.00;;;;;;6030657;23;20006;-88
2022/07/08 11:02:14;;;;;;;;;;;;;;;;;;;;;
2022/07/08 11:17:40;;;;;;;;;;;;;;;;;;;;;
2022/07/08 11:21:35;;;;;;;5.65;1.30;;;21.80;1.00;;;;;;6154666;23;20021;-89
2022/07/08 11:24:58;;;;;;;7.40;1.77;;;22.00;1.00;;;;;;6033218;23;20062;-91
2022/07/08 11:28:24;;;;;;;8.40;2.10;;;22.10;1.00;;;;;;6079502;23;20077;-89
2022/07/08 11:31:38;;;;;;;6.50;1.30;;;22.20;1.00;;;;;;6079882;23;20069;-88
2022/07/08 11:42:48;;;;;;;4.45;1.65;;;22.50;1.00;;;;;;6127067;23;20109;-89
2022/07/08 11:46:01;;;;;;;5.93;1.45;;;22.60;1.00;;;;;;6021671;23;20556;-89
2022/07/08 11:49:14;;;;;;;9.52;1.88;;;22.70;1.00;;;;;;5996001;23;20055;-88
2022/07/08 11:52:44;;;;;;;4.82;2.00;;;22.80;1.00;;;;;;6041858;23;20474;-88
2022/07/08 11:56:35;;;;;;;6.75;1.50;;;23.00;1.00;;;;;;6060096;23;20038;-89
2022/07/08 11:59:54;;;;;;;3.05;1.10;;;23.20;1.00;;;;;;5980715;24;20028;-88
2022/07/08 12:09:19;;;;;;;5.63;2.03;;;23.40;1.00;;;;;;6112097;23;20045;-89
2022/07/08 12:17:36;;;;;;;3.65;1.52;;;23.40;1.00;;;;;;6008322;23;20049;-89
2022/07/08 12:21:21;;;;;;;8.60;2.28;;;23.80;1.00;;;;;;6020977;23;20105;-90
2022/07/08 12:25:08;;;;;;;6.55;1.50;;;24.00;1.00;;;;;;6109913;23;20035;-90
2022/07/08 12:28:04;;;;;;;;;;;24.20;1.00;;;;;;6078792;23;20112;-89
2022/07/08 12:51:23;;;;;;;4.82;1.58;;;24.50;1.00;;;;;;6165892;23;20057;-90
2022/07/08 12:53:58;;;;;;;3.50;1.45;;;24.70;1.00;;;;;;6119203;23;20014;-89
2022/07/08 12:56:37;;;;;;;4.30;1.20;;;24.60;1.00;;;;;;6106141;23;20004;-89
2022/07/08 12:59:20;;;;;;;4.50;1.67;;;24.60;1.00;;;;;;6131052;23;20041;-88
2022/07/08 13:01:57;;;;;;;7.20;2.13;;;24.70;1.00;;;;;;6125334;23;20053;-89
2022/07/08 13:08:33;;;;;;;4.43;1.02;;;24.60;1.00;;;;;;5984408;23;20027;-89
2022/07/08 13:15:20;;;;;;;5.32;1.52;;;24.80;1.00;;;;;;6081163;23;20041;-89
2022/07/08 13:21:33;;;;;;;3.05;1.50;;;24.90;1.00;;;;;;6069999;23;20041;-89
2022/07/08 13:24:40;;;;;;;2.88;1.33;;;24.90;1.00;;;;;;6107879;23;20033;-88
2022/07/08 13:27:25;;;;;;;3.22;1.33;;;25.10;1.00;;;;;;6100123;23;20018;-90
2022/07/08 13:30:51;;;;;;;8.30;1.70;;;25.30;1.00;;;;;;6108397;23;20025;-88
2022/07/08 13:33:45;;;;;;;5.60;1.45;;;25.40;1.00;;;;;;6100014;23;20049;-89
2022/07/08 13:42:59;;;;;;;3.08;1.20;;;25.40;1.00;;;;;;6099685;23;20022;-91
2022/07/08 14:32:32;;;;;;;4.22;1.25;;;27.30;1.00;;;;;;6073689;23;20052;-89
2022/07/08 14:34:59;;;;;;;4.82;1.52;;;27.40;1.00;;;;;;6120606;23;20022;-88
2022/07/08 14:37:43;;;;;;;1.65;0.90;;;27.50;1.00;;;;;;6127774;23;20022;-89
2022/07/08 15:00:58;;;;;;;1.98;0.70;;;28.50;1.00;;;;;;6140506;23;20018;-88
2022/07/08 15:04:08;;;;;;;2.55;0.93;;;28.50;1.00;;;;;;6126639;23;20077;-88
2022/07/08 15:12:05;;;;;;;3.42;1.48;;;29.00;1.00;;;;;;6069591;23;20089;-91
2022/07/08 15:14:42;;;;;;;;;;;28.90;1.00;;;;;;6115266;23;20018;-89
2022/07/08 15:21:49;;;;;;;4.05;1.13;;;29.30;1.00;;;;;;6127863;23;20124;-89
2022/07/08 15:24:41;;;;;;;2.70;1.58;;;29.40;1.00;;;;;;6126791;23;20442;-89
2022/07/08 15:27:48;;;;;;;5.15;1.20;;;29.40;1.00;;;;;;6106216;23;20022;-89
2022/07/08 15:30:52;;;;;;;2.60;1.30;;;29.60;1.00;;;;;;6128521;23;20028;-90
2022/07/08 15:33:33;;;;;;;2.75;1.42;;;29.50;1.00;;;;;;6092558;23;20034;-90
2022/07/08 15:36:17;;;;;;;1.75;0.88;;;29.20;1.00;;;;;;6154142;23;20017;-90
2022/07/08 15:48:15;;;;;;;3.30;1.02;;;29.50;1.00;;;;;;6099383;23;20475;-89
2022/07/08 15:50:58;;;;;;;3.17;1.00;;;29.40;1.00;;;;;;6098442;23;20041;-91
2022/07/08 15:54:12;;;;;;;1.98;0.90;;;29.60;1.00;;;;;;5995292;23;20096;-90
2022/07/08 16:01:29;;;;;;;4.47;1.10;;;29.60;1.00;;;;;;6036540;23;20031;-90
2022/07/08 16:04:09;;;;;;;2.65;0.80;;;29.50;1.00;;;;;;6013380;23;20400;-91
2022/07/08 16:06:38;;;;;;;2.70;1.02;;;29.50;1.00;;;;;;5991818;23;20384;-89
2022/07/08 16:09:29;;;;;;;8.02;1.48;;;29.50;1.00;;;;;;6015560;23;20517;-89
2022/07/08 16:12:13;;;;;;;5.57;1.27;;;29.40;1.00;;;;;;6037817;23;20039;-89
2022/07/08 16:14:52;;;;;;;1.67;0.75;;;29.40;1.00;;;;;;6015242;23;20072;-90
2022/07/08 16:17:43;;;;;;;3.20;1.00;;;29.30;1.00;;;;;;6015941;23;20019;-91
2022/07/08 16:20:17;;;;;;;2.03;0.90;;;29.40;1.00;;;;;;5992358;23;20047;-90
2022/07/08 16:22:47;;;;;;;3.53;1.33;;;29.30;1.00;;;;;;6037520;23;20498;-89
2022/07/08 16:25:30;;;;;;;3.17;0.98;;;29.10;1.00;;;;;;6014266;23;20106;-89
2022/07/08 16:28:02;;;;;;;3.97;1.67;;;29.10;1.00;;;;;;6037806;23;20019;-90
2022/07/08 16:30:30;;;;;;;3.83;1.15;;;29.10;1.00;;;;;;6049029;23;20018;-90
2022/07/08 16:32:59;;;;;;;2.05;1.10;;;29.20;1.00;;;;;;6077508;23;20028;-88
2022/07/08 16:35:30;;;;;;;2.50;1.15;;;29.00;1.00;;;;;;6078773;23;20021;-89
2022/07/08 16:38:05;;;;;;;2.95;1.30;;;28.90;1.00;;;;;;6102313;23;20442;-89
2022/07/08 16:41:11;;;;;;;2.90;1.42;;;28.90;1.00;;;;;;6099533;23;20025;-90
2022/07/08 16:43:57;;;;;;;4.50;1.05;;;28.80;1.00;;;;;;6126987;23;20014;-89
2022/07/08 16:46:29;;;;;;;6.35;1.23;;;28.60;1.00;;;;;;6101224;23;20081;-89
2022/07/08 16:53:17;;;;;;;3.20;0.80;;;28.60;1.00;;;;;;6125679;23;20094;-90
2022/07/08 17:51:34;;;;;;;2.22;0.98;;;26.70;1.00;;;;;;5898517;24;20045;-92
2022/07/08 17:56:30;;;;;;;2.63;1.10;;;26.60;1.00;;;;;;5864022;24;20029;-90
2022/07/08 18:08:02;;;;;;;4.93;1.20;;;26.30;1.00;;;;;;5940494;24;20031;-89
2022/07/08 18:10:41;;;;;;;4.57;1.20;;;26.20;1.00;;;;;;5960355;24;20032;-91
2022/07/08 18:13:24;;;;;;;2.10;1.52;;;26.10;1.00;;;;;;5970607;23;20044;-90
2022/07/08 18:16:02;;;;;;;;;;;26.00;1.00;;;;;;5962794;24;20020;-90
2022/07/08 18:18:34;;;;;;;6.15;0.95;;;26.00;1.00;;;;;;5986919;23;19946;-88
2022/07/08 18:21:02;;;;;;;2.63;1.40;;;25.90;1.00;;;;;;5986818;23;20000;-89
2022/07/08 18:23:32;;;;;;;3.40;0.80;;;25.80;1.00;;;;;;5995923;23;20007;-89
2022/07/08 18:26:09;;;;;;;7.35;2.05;;;25.70;1.00;;;;;;6027646;23;20016;-88
2022/07/08 18:29:15;;;;;;;3.17;1.10;;;25.70;1.00;;;;;;6014418;23;20378;-89
2022/07/08 18:32:17;;;;;;;4.32;1.40;;;25.60;1.00;;;;;;6012405;23;20019;-89
2022/07/08 18:37:36;;;;;;;2.35;1.70;;;25.50;1.00;;;;;;6165000;23;20025;-90
2022/07/08 18:40:18;;;;;;;3.95;1.35;;;25.10;1.00;;;;;;6134058;23;20018;-89
2022/07/08 18:42:50;;;;;;;6.53;1.52;;;25.10;1.00;;;;;;6131055;23;20100;-89
2022/07/08 18:45:21;;;;;;;5.88;1.52;;;25.10;1.00;;;;;;6131217;23;20020;-89
2022/07/08 18:47:54;;;;;;;;;;;25.00;1.00;;;;;;6079262;23;20116;-89
2022/07/08 18:50:25;;;;;;;2.50;1.10;;;24.90;1.00;;;;;;6079467;23;19949;-89
2022/07/08 18:52:57;;;;;;;3.58;1.58;;;24.90;1.00;;;;;;6127919;23;20081;-90
2022/07/08 18:55:28;;;;;;;5.03;1.20;;;24.80;1.00;;;;;;6103301;23;20025;-89
2022/07/08 18:58:06;;;;;;;2.45;1.17;;;24.80;1.00;;;;;;6079969;23;20394;-89
2022/07/08 19:00:44;;;;;;;6.20;1.10;;;24.80;1.00;;;;;;6079347;23;20081;-90
2022/07/08 19:03:19;;;;;;;4.90;1.65;;;24.70;1.00;;;;;;6101555;23;20450;-90
2022/07/08 19:05:59;;;;;;;4.03;0.95;;;24.50;1.00;;;;;;6102581;23;20072;-90
2022/07/08 19:08:38;;;;;;;2.60;1.20;;;24.40;1.00;;;;;;6079895;23;20446;-89
2022/07/08 19:11:13;;;;;;;3.45;1.08;;;24.40;1.00;;;;;;6101948;23;20022;-89
2022/07/08 19:13:56;;;;;;;3.42;1.13;;;24.40;1.00;;;;;;6097525;23;20100;-89
2022/07/08 19:16:43;;;;;;;1.40;0.80;;;24.30;1.00;;;;;;6079890;23;20041;-89
2022/07/08 19:19:15;;;;;;;2.13;0.85;;;24.20;1.00;;;;;;6078645;23;20053;-90
2022/07/08 19:21:53;;;;;;;2.85;0.95;;;24.20;1.00;;;;;;6128017;23;20060;-90